sensor_id;sensor_type;location;lat;lon;timestamp;pressure;altitude;pressure_sealevel;temperature;humidity
67015;BME280;1033;52.560;13.374;2023-04-21T00:00:10;101511.56;;;10.45;87.31
67015;BME280;1033;52.560;13.374;2023-04-21T00:02:40;101511.47;;;10.39;87.81
67015;BME280;1033;52.560;13.374;2023-04-21T00:05:09;101513.59;;;10.29;88.25
67015;BME280;1033;52.560;13.374;2023-04-21T00:07:40;101514.72;;;10.20;88.84
67015;BME280;1033;52.560;13.374;2023-04-21T00:10:11;101517.66;;;10.10;89.58
67015;BME280;1033;52.560;13.374;2023-04-21T00:12:40;101511.19;;;9.96;90.20
67015;BME280;1033;52.560;13.374;2023-04-21T00:15:10;101510.59;;;9.86;91.17
67015;BME280;1033;52.560;13.374;2023-04-21T00:17:39;101509.63;;;9.79;91.51
67015;BME280;1033;52.560;13.374;2023-04-21T00:20:09;101510.72;;;9.70;91.91
67015;BME280;1033;52.560;13.374;2023-04-21T00:22:38;101504.38;;;9.63;92.40
67015;BME280;1033;52.560;13.374;2023-04-21T00:25:07;101502.56;;;9.55;92.94
67015;BME280;1033;52.560;13.374;2023-04-21T00:27:38;101505.81;;;9.51;93.32
67015;BME280;1033;52.560;13.374;2023-04-21T00:30:08;101504.69;;;9.45;93.77
67015;BME280;1033;52.560;13.374;2023-04-21T00:32:37;101507.75;;;9.42;94.05
67015;BME280;1033;52.560;13.374;2023-04-21T00:35:07;101504.38;;;9.40;94.24
67015;BME280;1033;52.560;13.374;2023-04-21T00:37:36;101503.72;;;9.38;94.37
67015;BME280;1033;52.560;13.374;2023-04-21T00:40:08;101494.66;;;9.31;94.53
67015;BME280;1033;52.560;13.374;2023-04-21T00:42:41;101500.75;;;9.25;94.96
67015;BME280;1033;52.560;13.374;2023-04-21T00:45:10;101490.69;;;9.19;95.46
67015;BME280;1033;52.560;13.374;2023-04-21T00:47:41;101495.25;;;9.19;95.60
67015;BME280;1033;52.560;13.374;2023-04-21T00:50:11;101493.94;;;9.14;95.80
67015;BME280;1033;52.560;13.374;2023-04-21T00:52:41;101495.94;;;9.12;95.89
67015;BME280;1033;52.560;13.374;2023-04-21T00:55:14;101492.78;;;9.09;96.11
67015;BME280;1033;52.560;13.374;2023-04-21T00:57:45;101486.22;;;9.03;96.44
67015;BME280;1033;52.560;13.374;2023-04-21T01:00:16;101491.78;;;9.02;96.77
67015;BME280;1033;52.560;13.374;2023-04-21T01:02:45;101491.16;;;9.00;96.75
67015;BME280;1033;52.560;13.374;2023-04-21T01:05:15;101491.16;;;9.00;96.71
67015;BME280;1033;52.560;13.374;2023-04-21T01:07:44;101486.09;;;8.97;96.72
67015;BME280;1033;52.560;13.374;2023-04-21T01:10:14;101487.91;;;9.04;96.09
67015;BME280;1033;52.560;13.374;2023-04-21T01:12:47;101482.28;;;9.14;94.92
67015;BME280;1033;52.560;13.374;2023-04-21T01:15:17;101485.09;;;9.21;93.69
67015;BME280;1033;52.560;13.374;2023-04-21T01:17:46;101489.06;;;9.33;92.20
67015;BME280;1033;52.560;13.374;2023-04-21T01:20:16;101483.97;;;9.38;91.16
67015;BME280;1033;52.560;13.374;2023-04-21T01:22:46;101491.53;;;9.42;90.42
67015;BME280;1033;52.560;13.374;2023-04-21T01:25:17;101483.97;;;9.38;90.07
67015;BME280;1033;52.560;13.374;2023-04-21T01:27:49;101487.22;;;9.33;90.03
67015;BME280;1033;52.560;13.374;2023-04-21T01:30:21;101481.31;;;9.30;90.19
67015;BME280;1033;52.560;13.374;2023-04-21T01:32:51;101476.28;;;9.27;89.84
67015;BME280;1033;52.560;13.374;2023-04-21T01:35:20;101480.00;;;9.26;89.72
67015;BME280;1033;52.560;13.374;2023-04-21T01:37:50;101473.28;;;9.22;89.68
67015;BME280;1033;52.560;13.374;2023-04-21T01:40:20;101477.72;;;9.14;90.14
67015;BME280;1033;52.560;13.374;2023-04-21T01:42:49;101468.59;;;9.15;89.81
67015;BME280;1033;52.560;13.374;2023-04-21T01:45:18;101472.63;;;9.20;89.39
67015;BME280;1033;52.560;13.374;2023-04-21T01:47:47;101466.56;;;9.18;88.92
67015;BME280;1033;52.560;13.374;2023-04-21T01:50:16;101469.63;;;9.14;89.06
67015;BME280;1033;52.560;13.374;2023-04-21T01:52:45;101472.66;;;9.11;89.16
67015;BME280;1033;52.560;13.374;2023-04-21T01:55:16;101469.97;;;9.11;88.74
67015;BME280;1033;52.560;13.374;2023-04-21T01:57:45;101465.53;;;9.19;88.06
67015;BME280;1033;52.560;13.374;2023-04-21T02:00:15;101466.19;;;9.21;87.37
67015;BME280;1033;52.560;13.374;2023-04-21T02:02:44;101459.94;;;9.20;87.44
67015;BME280;1033;52.560;13.374;2023-04-21T02:05:13;101458.94;;;9.21;86.80
67015;BME280;1033;52.560;13.374;2023-04-21T02:07:42;101462.47;;;9.22;86.45
67015;BME280;1033;52.560;13.374;2023-04-21T02:10:12;101461.84;;;9.20;86.45
67015;BME280;1033;52.560;13.374;2023-04-21T02:12:44;101460.16;;;9.19;86.38
67015;BME280;1033;52.560;13.374;2023-04-21T02:15:13;101465.56;;;9.10;86.58
67015;BME280;1033;52.560;13.374;2023-04-21T02:17:42;101456.69;;;9.02;86.94
67015;BME280;1033;52.560;13.374;2023-04-21T02:20:11;101456.09;;;8.92;87.41
67015;BME280;1033;52.560;13.374;2023-04-21T02:22:40;101459.31;;;8.87;87.67
67015;BME280;1033;52.560;13.374;2023-04-21T02:25:09;101456.97;;;8.84;87.46
67015;BME280;1033;52.560;13.374;2023-04-21T02:27:38;101452.59;;;8.83;87.54
67015;BME280;1033;52.560;13.374;2023-04-21T02:30:09;101453.28;;;8.85;87.33
67015;BME280;1033;52.560;13.374;2023-04-21T02:32:38;101450.56;;;8.85;86.89
67015;BME280;1033;52.560;13.374;2023-04-21T02:35:08;101451.06;;;8.89;86.51
67015;BME280;1033;52.560;13.374;2023-04-21T02:37:37;101453.59;;;8.90;86.30
67015;BME280;1033;52.560;13.374;2023-04-21T02:40:07;101447.13;;;8.99;85.32
67015;BME280;1033;52.560;13.374;2023-04-21T02:42:36;101455.16;;;9.07;84.62
67015;BME280;1033;52.560;13.374;2023-04-21T02:45:09;101452.34;;;9.24;83.17
67015;BME280;1033;52.560;13.374;2023-04-21T02:47:38;101447.59;;;9.26;82.75
67015;BME280;1033;52.560;13.374;2023-04-21T02:50:07;101457.53;;;9.25;82.46
67015;BME280;1033;52.560;13.374;2023-04-21T02:52:36;101447.97;;;9.23;82.48
67015;BME280;1033;52.560;13.374;2023-04-21T02:55:06;101459.13;;;9.20;82.61
67015;BME280;1033;52.560;13.374;2023-04-21T02:57:35;101449.97;;;9.21;82.37
67015;BME280;1033;52.560;13.374;2023-04-21T03:00:09;101444.59;;;9.21;82.11
67015;BME280;1033;52.560;13.374;2023-04-21T03:02:39;101436.47;;;9.21;81.82
67015;BME280;1033;52.560;13.374;2023-04-21T03:05:08;101444.28;;;9.15;82.04
67015;BME280;1033;52.560;13.374;2023-04-21T03:07:39;101450.06;;;9.12;82.19
67015;BME280;1033;52.560;13.374;2023-04-21T03:10:08;101438.94;;;9.07;82.37
67015;BME280;1033;52.560;13.374;2023-04-21T03:12:37;101443.19;;;9.02;82.68
67015;BME280;1033;52.560;13.374;2023-04-21T03:15:06;101453.84;;;9.03;82.62
67015;BME280;1033;52.560;13.374;2023-04-21T03:17:36;101443.41;;;9.00;82.35
67015;BME280;1033;52.560;13.374;2023-04-21T03:20:08;101442.91;;;8.97;82.38
67015;BME280;1033;52.560;13.374;2023-04-21T03:22:38;101442.34;;;9.01;82.10
67015;BME280;1033;52.560;13.374;2023-04-21T03:25:07;101449.13;;;8.97;82.21
67015;BME280;1033;52.560;13.374;2023-04-21T03:27:36;101442.06;;;8.96;82.21
67015;BME280;1033;52.560;13.374;2023-04-21T03:30:06;101446.97;;;8.93;82.09
67015;BME280;1033;52.560;13.374;2023-04-21T03:32:37;101445.66;;;8.89;82.40
67015;BME280;1033;52.560;13.374;2023-04-21T03:35:06;101450.03;;;8.90;82.24
67015;BME280;1033;52.560;13.374;2023-04-21T03:37:35;101450.38;;;8.87;82.22
67015;BME280;1033;52.560;13.374;2023-04-21T03:40:05;101449.00;;;8.91;81.68
67015;BME280;1033;52.560;13.374;2023-04-21T03:42:34;101452.53;;;8.91;81.53
67015;BME280;1033;52.560;13.374;2023-04-21T03:45:03;101447.66;;;8.95;81.24
67015;BME280;1033;52.560;13.374;2023-04-21T03:47:34;101442.56;;;9.00;81.02
67015;BME280;1033;52.560;13.374;2023-04-21T03:50:05;101439.03;;;8.91;81.29
67015;BME280;1033;52.560;13.374;2023-04-21T03:52:34;101447.69;;;8.87;81.60
67015;BME280;1033;52.560;13.374;2023-04-21T03:55:03;101449.06;;;8.83;81.79
67015;BME280;1033;52.560;13.374;2023-04-21T03:57:35;101452.97;;;8.80;81.95
67015;BME280;1033;52.560;13.374;2023-04-21T04:00:05;101454.94;;;8.86;81.32
67015;BME280;1033;52.560;13.374;2023-04-21T04:02:39;101451.53;;;8.92;80.71
67015;BME280;1033;52.560;13.374;2023-04-21T04:05:09;101452.84;;;8.96;80.61
67015;BME280;1033;52.560;13.374;2023-04-21T04:07:38;101452.50;;;8.99;80.48
67015;BME280;1033;52.560;13.374;2023-04-21T04:10:07;101446.59;;;8.96;80.58
67015;BME280;1033;52.560;13.374;2023-04-21T04:12:36;101452.50;;;8.99;80.39
67015;BME280;1033;52.560;13.374;2023-04-21T04:15:06;101447.97;;;9.00;80.48
67015;BME280;1033;52.560;13.374;2023-04-21T04:17:35;101455.69;;;9.03;80.13
67015;BME280;1033;52.560;13.374;2023-04-21T04:20:06;101454.06;;;9.16;79.48
67015;BME280;1033;52.560;13.374;2023-04-21T04:22:37;101450.97;;;9.28;79.06
67015;BME280;1033;52.560;13.374;2023-04-21T04:25:06;101454.91;;;9.40;78.34
67015;BME280;1033;52.560;13.374;2023-04-21T04:27:36;101462.03;;;9.55;77.22
67015;BME280;1033;52.560;13.374;2023-04-21T04:30:06;101452.25;;;9.92;75.89
67015;BME280;1033;52.560;13.374;2023-04-21T04:32:43;101464.22;;;10.27;74.36
67015;BME280;1033;52.560;13.374;2023-04-21T04:35:16;101463.38;;;10.56;72.31
67015;BME280;1033;52.560;13.374;2023-04-21T04:37:47;101473.63;;;10.75;71.43
67015;BME280;1033;52.560;13.374;2023-04-21T04:40:16;101464.16;;;11.00;70.35
67015;BME280;1033;52.560;13.374;2023-04-21T04:42:45;101466.19;;;11.13;69.34
67015;BME280;1033;52.560;13.374;2023-04-21T04:45:15;101472.63;;;11.12;69.36
67015;BME280;1033;52.560;13.374;2023-04-21T04:47:55;101468.72;;;11.57;68.02
67015;BME280;1033;52.560;13.374;2023-04-21T04:50:28;101457.03;;;11.56;67.41
67015;BME280;1033;52.560;13.374;2023-04-21T04:53:09;101469.03;;;11.96;65.85
67015;BME280;1033;52.560;13.374;2023-04-21T04:55:39;101471.03;;;12.09;65.34
67015;BME280;1033;52.560;13.374;2023-04-21T04:58:14;101469.75;;;12.05;65.02
67015;BME280;1033;52.560;13.374;2023-04-21T05:03:34;101476.78;;;12.61;62.91
67015;BME280;1033;52.560;13.374;2023-04-21T05:06:03;101476.81;;;12.75;61.96
67015;BME280;1033;52.560;13.374;2023-04-21T05:09:04;101475.38;;;12.72;61.69
67015;BME280;1033;52.560;13.374;2023-04-21T05:12:07;101475.56;;;12.36;62.53
67015;BME280;1033;52.560;13.374;2023-04-21T05:15:05;101481.66;;;11.19;66.72
67015;BME280;1033;52.560;13.374;2023-04-21T05:17:50;101479.63;;;10.41;70.26
67015;BME280;1033;52.560;13.374;2023-04-21T05:20:41;101474.84;;;10.14;71.65
67015;BME280;1033;52.560;13.374;2023-04-21T05:23:12;101475.22;;;10.11;72.35
67015;BME280;1033;52.560;13.374;2023-04-21T05:26:03;101472.31;;;10.12;72.53
67015;BME280;1033;52.560;13.374;2023-04-21T05:29:09;101470.41;;;10.21;71.90
67015;BME280;1033;52.560;13.374;2023-04-21T05:31:51;101479.00;;;10.24;72.10
67015;BME280;1033;52.560;13.374;2023-04-21T05:35:04;101471.34;;;10.28;71.91
67015;BME280;1033;52.560;13.374;2023-04-21T05:37:35;101479.63;;;10.41;71.54
67015;BME280;1033;52.560;13.374;2023-04-21T05:40:05;101476.84;;;10.49;71.52
67015;BME280;1033;52.560;13.374;2023-04-21T05:42:38;101476.47;;;10.52;71.06
67015;BME280;1033;52.560;13.374;2023-04-21T05:45:08;101478.31;;;10.66;70.86
67015;BME280;1033;52.560;13.374;2023-04-21T05:47:37;101472.81;;;10.74;70.41
67015;BME280;1033;52.560;13.374;2023-04-21T05:50:08;101480.81;;;10.82;69.63
67015;BME280;1033;52.560;13.374;2023-04-21T05:52:37;101476.13;;;10.91;69.34
67015;BME280;1033;52.560;13.374;2023-04-21T05:55:07;101474.03;;;11.08;68.94
67015;BME280;1033;52.560;13.374;2023-04-21T05:57:37;101473.97;;;11.01;68.68
67015;BME280;1033;52.560;13.374;2023-04-21T06:00:07;101465.13;;;11.14;68.31
67015;BME280;1033;52.560;13.374;2023-04-21T06:02:37;101467.72;;;11.22;68.11
67015;BME280;1033;52.560;13.374;2023-04-21T06:05:06;101479.34;;;11.37;67.20
67015;BME280;1033;52.560;13.374;2023-04-21T06:07:36;101467.09;;;11.41;66.78
67015;BME280;1033;52.560;13.374;2023-04-21T06:10:16;101463.66;;;11.54;66.41
67015;BME280;1033;52.560;13.374;2023-04-21T06:12:51;101465.88;;;11.71;66.13
67015;BME280;1033;52.560;13.374;2023-04-21T06:15:21;101469.28;;;11.73;65.32
67015;BME280;1033;52.560;13.374;2023-04-21T06:17:55;101457.66;;;11.80;64.98
67015;BME280;1033;52.560;13.374;2023-04-21T06:20:34;101460.56;;;11.78;65.16
67015;BME280;1033;52.560;13.374;2023-04-21T06:23:05;101469.94;;;12.03;64.89
67015;BME280;1033;52.560;13.374;2023-04-21T06:25:36;101459.44;;;11.94;64.18
67015;BME280;1033;52.560;13.374;2023-04-21T06:28:07;101453.75;;;12.16;64.03
67015;BME280;1033;52.560;13.374;2023-04-21T06:30:36;101457.94;;;12.19;63.97
67015;BME280;1033;52.560;13.374;2023-04-21T06:33:06;101448.19;;;12.31;63.04
67015;BME280;1033;52.560;13.374;2023-04-21T06:35:36;101452.41;;;12.40;62.98
67015;BME280;1033;52.560;13.374;2023-04-21T06:38:08;101452.72;;;12.52;62.18
67015;BME280;1033;52.560;13.374;2023-04-21T06:40:41;101455.22;;;12.53;61.91
67015;BME280;1033;52.560;13.374;2023-04-21T06:43:16;101443.22;;;12.89;61.37
67015;BME280;1033;52.560;13.374;2023-04-21T06:45:46;101452.47;;;13.01;60.20
67015;BME280;1033;52.560;13.374;2023-04-21T06:48:19;101448.50;;;13.03;60.24
67015;BME280;1033;52.560;13.374;2023-04-21T06:50:49;101444.94;;;13.03;60.31
67015;BME280;1033;52.560;13.374;2023-04-21T06:53:28;101446.72;;;13.30;59.25
67015;BME280;1033;52.560;13.374;2023-04-21T06:56:43;101444.22;;;13.42;59.33
67015;BME280;1033;52.560;13.374;2023-04-21T06:59:30;101442.97;;;13.58;58.59
67015;BME280;1033;52.560;13.374;2023-04-21T07:02:24;101442.53;;;13.41;58.51
67015;BME280;1033;52.560;13.374;2023-04-21T07:04:55;101438.78;;;13.42;57.60
67015;BME280;1033;52.560;13.374;2023-04-21T07:07:25;101437.13;;;13.74;57.56
67015;BME280;1033;52.560;13.374;2023-04-21T07:09:54;101439.63;;;13.82;57.07
67015;BME280;1033;52.560;13.374;2023-04-21T07:12:23;101438.78;;;14.01;56.47
67015;BME280;1033;52.560;13.374;2023-04-21T07:14:53;101435.84;;;13.96;56.22
67015;BME280;1033;52.560;13.374;2023-04-21T07:17:22;101434.19;;;14.02;55.88
67015;BME280;1033;52.560;13.374;2023-04-21T07:19:51;101437.31;;;14.18;55.67
67015;BME280;1033;52.560;13.374;2023-04-21T07:22:20;101426.56;;;14.43;54.80
67015;BME280;1033;52.560;13.374;2023-04-21T07:24:49;101435.56;;;14.44;54.13
67015;BME280;1033;52.560;13.374;2023-04-21T07:27:19;101432.88;;;14.37;54.46
67015;BME280;1033;52.560;13.374;2023-04-21T07:29:55;101435.63;;;14.17;55.39
67015;BME280;1033;52.560;13.374;2023-04-21T07:32:24;101429.94;;;14.25;55.47
67015;BME280;1033;52.560;13.374;2023-04-21T07:34:53;101428.47;;;14.29;55.11
67015;BME280;1033;52.560;13.374;2023-04-21T07:37:23;101439.13;;;14.51;54.54
67015;BME280;1033;52.560;13.374;2023-04-21T07:39:52;101438.78;;;14.78;54.25
67015;BME280;1033;52.560;13.374;2023-04-21T07:42:22;101438.59;;;14.80;53.07
67015;BME280;1033;52.560;13.374;2023-04-21T07:44:55;101429.84;;;14.58;53.31
67015;BME280;1033;52.560;13.374;2023-04-21T07:47:32;101430.16;;;14.88;53.05
67015;BME280;1033;52.560;13.374;2023-04-21T07:50:03;101429.47;;;14.99;53.00
67015;BME280;1033;52.560;13.374;2023-04-21T07:52:33;101434.56;;;15.20;52.56
67015;BME280;1033;52.560;13.374;2023-04-21T07:55:04;101428.34;;;15.13;51.91
67015;BME280;1033;52.560;13.374;2023-04-21T07:57:34;101437.38;;;15.07;52.47
67015;BME280;1033;52.560;13.374;2023-04-21T08:00:09;101426.97;;;15.29;52.71
67015;BME280;1033;52.560;13.374;2023-04-21T08:02:40;101427.03;;;15.16;52.36
67015;BME280;1033;52.560;13.374;2023-04-21T08:05:09;101432.91;;;15.19;52.60
67015;BME280;1033;52.560;13.374;2023-04-21T08:07:39;101427.38;;;15.33;52.53
67015;BME280;1033;52.560;13.374;2023-04-21T08:10:09;101429.81;;;15.41;51.81
67015;BME280;1033;52.560;13.374;2023-04-21T08:12:39;101423.53;;;15.40;51.39
67015;BME280;1033;52.560;13.374;2023-04-21T08:15:10;101433.16;;;15.43;52.06
67015;BME280;1033;52.560;13.374;2023-04-21T08:17:39;101431.00;;;15.58;52.15
67015;BME280;1033;52.560;13.374;2023-04-21T08:20:09;101423.06;;;15.75;51.75
67015;BME280;1033;52.560;13.374;2023-04-21T08:22:39;101424.41;;;15.90;50.87
67015;BME280;1033;52.560;13.374;2023-04-21T08:25:09;101424.38;;;15.72;51.51
67015;BME280;1033;52.560;13.374;2023-04-21T08:27:39;101418.94;;;15.90;51.56
67015;BME280;1033;52.560;13.374;2023-04-21T08:30:11;101418.91;;;16.15;50.59
67015;BME280;1033;52.560;13.374;2023-04-21T08:32:40;101421.50;;;16.28;49.37
67015;BME280;1033;52.560;13.374;2023-04-21T08:35:10;101428.69;;;16.23;49.43
67015;BME280;1033;52.560;13.374;2023-04-21T08:37:39;101412.91;;;16.06;50.71
67015;BME280;1033;52.560;13.374;2023-04-21T08:40:09;101413.66;;;15.71;51.28
67015;BME280;1033;52.560;13.374;2023-04-21T08:42:39;101411.22;;;15.87;51.37
67015;BME280;1033;52.560;13.374;2023-04-21T08:45:10;101412.44;;;16.09;50.54
67015;BME280;1033;52.560;13.374;2023-04-21T08:47:40;101406.84;;;16.04;50.92
67015;BME280;1033;52.560;13.374;2023-04-21T08:50:12;101406.53;;;16.13;50.41
67015;BME280;1033;52.560;13.374;2023-04-21T08:52:42;101411.41;;;16.29;49.67
67015;BME280;1033;52.560;13.374;2023-04-21T08:55:12;101412.53;;;16.39;48.09
67015;BME280;1033;52.560;13.374;2023-04-21T08:57:42;101409.28;;;16.31;48.47
67015;BME280;1033;52.560;13.374;2023-04-21T09:00:13;101412.00;;;16.49;48.93
67015;BME280;1033;52.560;13.374;2023-04-21T09:02:57;101407.47;;;16.79;48.88
67015;BME280;1033;52.560;13.374;2023-04-21T09:05:30;101405.53;;;17.10;48.56
67015;BME280;1033;52.560;13.374;2023-04-21T09:08:10;101401.31;;;16.95;48.37
67015;BME280;1033;52.560;13.374;2023-04-21T09:10:43;101407.34;;;17.16;48.00
67015;BME280;1033;52.560;13.374;2023-04-21T09:13:13;101404.19;;;17.01;46.60
67015;BME280;1033;52.560;13.374;2023-04-21T09:15:45;101401.72;;;16.99;46.92
67015;BME280;1033;52.560;13.374;2023-04-21T09:18:17;101403.06;;;17.20;46.34
67015;BME280;1033;52.560;13.374;2023-04-21T09:20:48;101408.41;;;17.15;46.57
67015;BME280;1033;52.560;13.374;2023-04-21T09:23:20;101401.03;;;17.15;46.70
67015;BME280;1033;52.560;13.374;2023-04-21T09:25:49;101406.13;;;17.53;46.39
67015;BME280;1033;52.560;13.374;2023-04-21T09:28:19;101403.72;;;17.45;46.02
67015;BME280;1033;52.560;13.374;2023-04-21T09:30:54;101406.88;;;17.19;46.07
67015;BME280;1033;52.560;13.374;2023-04-21T09:33:24;101402.16;;;17.26;45.45
67015;BME280;1033;52.560;13.374;2023-04-21T09:36:01;101402.19;;;17.49;44.62
67015;BME280;1033;52.560;13.374;2023-04-21T09:38:32;101402.00;;;17.62;44.23
67015;BME280;1033;52.560;13.374;2023-04-21T09:41:01;101404.03;;;17.78;44.64
67015;BME280;1033;52.560;13.374;2023-04-21T09:43:31;101402.97;;;18.03;44.67
67015;BME280;1033;52.560;13.374;2023-04-21T09:46:03;101391.41;;;18.12;44.22
67015;BME280;1033;52.560;13.374;2023-04-21T09:48:34;101398.19;;;18.21;43.63
67015;BME280;1033;52.560;13.374;2023-04-21T09:51:04;101396.53;;;18.09;43.49
67015;BME280;1033;52.560;13.374;2023-04-21T09:53:39;101391.22;;;17.91;44.22
67015;BME280;1033;52.560;13.374;2023-04-21T09:56:11;101383.44;;;17.99;43.75
67015;BME280;1033;52.560;13.374;2023-04-21T09:58:45;101385.13;;;18.00;44.00
67015;BME280;1033;52.560;13.374;2023-04-21T10:01:16;101381.19;;;18.08;44.13
67015;BME280;1033;52.560;13.374;2023-04-21T10:03:47;101387.50;;;18.20;43.01
67015;BME280;1033;52.560;13.374;2023-04-21T10:06:17;101397.97;;;18.00;43.62
67015;BME280;1033;52.560;13.374;2023-04-21T10:08:47;101380.78;;;18.39;42.35
67015;BME280;1033;52.560;13.374;2023-04-21T10:11:17;101378.13;;;18.84;41.70
67015;BME280;1033;52.560;13.374;2023-04-21T10:13:47;101383.19;;;18.76;40.94
67015;BME280;1033;52.560;13.374;2023-04-21T10:16:18;101380.88;;;18.44;41.33
67015;BME280;1033;52.560;13.374;2023-04-21T10:18:49;101376.22;;;18.56;40.37
67015;BME280;1033;52.560;13.374;2023-04-21T10:21:19;101369.81;;;18.39;40.75
67015;BME280;1033;52.560;13.374;2023-04-21T10:23:51;101381.34;;;18.53;40.68
67015;BME280;1033;52.560;13.374;2023-04-21T10:29:28;101365.31;;;18.73;39.74
67015;BME280;1033;52.560;13.374;2023-04-21T10:32:31;101361.31;;;19.09;38.85
67015;BME280;1033;52.560;13.374;2023-04-21T10:35:12;101353.41;;;18.96;39.46
67015;BME280;1033;52.560;13.374;2023-04-21T10:37:41;101359.78;;;18.56;39.92
67015;BME280;1033;52.560;13.374;2023-04-21T10:40:32;101352.63;;;18.84;39.38
67015;BME280;1033;52.560;13.374;2023-04-21T10:43:40;101363.59;;;19.12;39.24
67015;BME280;1033;52.560;13.374;2023-04-21T10:46:31;101345.66;;;19.55;37.98
67015;BME280;1033;52.560;13.374;2023-04-21T10:49:06;101349.66;;;19.64;37.69
67015;BME280;1033;52.560;13.374;2023-04-21T10:52:03;101350.63;;;19.24;39.48
67015;BME280;1033;52.560;13.374;2023-04-21T10:54:42;101349.16;;;19.50;38.40
67015;BME280;1033;52.560;13.374;2023-04-21T10:57:14;101344.88;;;19.42;37.80
67015;BME280;1033;52.560;13.374;2023-04-21T10:59:45;101338.56;;;19.25;38.31
67015;BME280;1033;52.560;13.374;2023-04-21T11:02:15;101333.81;;;19.37;37.91
67015;BME280;1033;52.560;13.374;2023-04-21T11:04:51;101331.34;;;19.52;38.73
67015;BME280;1033;52.560;13.374;2023-04-21T11:07:22;101325.03;;;19.69;38.06
67015;BME280;1033;52.560;13.374;2023-04-21T11:09:56;101333.19;;;19.64;38.28
67015;BME280;1033;52.560;13.374;2023-04-21T11:12:27;101315.31;;;19.44;37.94
67015;BME280;1033;52.560;13.374;2023-04-21T11:14:57;101323.34;;;19.51;38.31
67015;BME280;1033;52.560;13.374;2023-04-21T11:17:27;101317.88;;;19.51;38.16
67015;BME280;1033;52.560;13.374;2023-04-21T11:19:57;101313.03;;;19.75;37.36
67015;BME280;1033;52.560;13.374;2023-04-21T11:22:26;101306.97;;;19.94;37.11
67015;BME280;1033;52.560;13.374;2023-04-21T12:13:52;101267.28;;;20.51;35.65
67015;BME280;1033;52.560;13.374;2023-04-21T12:16:23;101265.66;;;20.06;35.18
67015;BME280;1033;52.560;13.374;2023-04-21T12:18:55;101257.44;;;20.55;35.16
67015;BME280;1033;52.560;13.374;2023-04-21T12:21:27;101263.78;;;20.55;35.57
67015;BME280;1033;52.560;13.374;2023-04-21T12:23:57;101266.16;;;20.47;35.68
67015;BME280;1033;52.560;13.374;2023-04-21T12:26:26;101261.47;;;20.25;36.09
67015;BME280;1033;52.560;13.374;2023-04-21T12:28:56;101253.66;;;20.12;36.05
67015;BME280;1033;52.560;13.374;2023-04-21T12:31:27;101254.97;;;20.10;36.37
67015;BME280;1033;52.560;13.374;2023-04-21T12:33:57;101247.00;;;20.08;36.25
67015;BME280;1033;52.560;13.374;2023-04-21T12:36:26;101260.69;;;20.03;35.59
67015;BME280;1033;52.560;13.374;2023-04-21T12:38:56;101248.03;;;20.02;35.38
67015;BME280;1033;52.560;13.374;2023-04-21T12:41:25;101240.03;;;20.01;36.17
67015;BME280;1033;52.560;13.374;2023-04-21T12:43:55;101239.44;;;20.20;35.16
67015;BME280;1033;52.560;13.374;2023-04-21T12:46:24;101244.94;;;20.42;34.68
67015;BME280;1033;52.560;13.374;2023-04-21T12:48:54;101237.22;;;20.66;35.39
67015;BME280;1033;52.560;13.374;2023-04-21T12:51:23;101234.09;;;20.57;34.99
67015;BME280;1033;52.560;13.374;2023-04-21T12:53:53;101226.94;;;20.08;35.54
67015;BME280;1033;52.560;13.374;2023-04-21T12:56:22;101233.06;;;20.15;35.37
67015;BME280;1033;52.560;13.374;2023-04-21T12:58:51;101218.88;;;20.01;35.24
67015;BME280;1033;52.560;13.374;2023-04-21T13:01:22;101227.13;;;20.23;34.96
67015;BME280;1033;52.560;13.374;2023-04-21T13:03:52;101213.56;;;20.16;35.27
67015;BME280;1033;52.560;13.374;2023-04-21T13:06:22;101227.06;;;20.18;34.76
67015;BME280;1033;52.560;13.374;2023-04-21T13:08:51;101212.31;;;20.02;34.96
67015;BME280;1033;52.560;13.374;2023-04-21T13:11:20;101219.75;;;19.80;34.61
67015;BME280;1033;52.560;13.374;2023-04-21T13:13:49;101210.44;;;19.86;35.38
67015;BME280;1033;52.560;13.374;2023-04-21T13:16:18;101204.19;;;20.12;34.67
67015;BME280;1033;52.560;13.374;2023-04-21T13:18:49;101194.75;;;20.30;33.96
67015;BME280;1033;52.560;13.374;2023-04-21T13:21:18;101200.19;;;19.98;33.71
67015;BME280;1033;52.560;13.374;2023-04-21T13:23:47;101200.84;;;20.10;33.59
67015;BME280;1033;52.560;13.374;2023-04-21T13:26:16;101196.84;;;20.45;33.17
67015;BME280;1033;52.560;13.374;2023-04-21T13:28:46;101198.81;;;20.49;32.87
67015;BME280;1033;52.560;13.374;2023-04-21T13:31:15;101195.72;;;20.41;32.90
67015;BME280;1033;52.560;13.374;2023-04-21T13:33:48;101193.44;;;20.32;33.20
67015;BME280;1033;52.560;13.374;2023-04-21T13:36:20;101187.81;;;20.49;32.83
67015;BME280;1033;52.560;13.374;2023-04-21T13:38:49;101184.72;;;20.41;33.30
67015;BME280;1033;52.560;13.374;2023-04-21T13:41:20;101191.53;;;20.11;33.58
67015;BME280;1033;52.560;13.374;2023-04-21T13:43:49;101178.91;;;19.67;33.93
67015;BME280;1033;52.560;13.374;2023-04-21T13:46:19;101176.47;;;19.92;33.98
67015;BME280;1033;52.560;13.374;2023-04-21T13:48:50;101166.69;;;20.01;34.18
67015;BME280;1033;52.560;13.374;2023-04-21T13:51:20;101166.50;;;20.08;34.01
67015;BME280;1033;52.560;13.374;2023-04-21T13:53:49;101153.06;;;20.11;33.59
67015;BME280;1033;52.560;13.374;2023-04-21T13:56:18;101160.91;;;19.76;34.33
67015;BME280;1033;52.560;13.374;2023-04-21T13:58:47;101155.53;;;19.86;34.59
67015;BME280;1033;52.560;13.374;2023-04-21T14:01:16;101152.59;;;19.71;34.78
67015;BME280;1033;52.560;13.374;2023-04-21T14:03:49;101148.19;;;19.91;34.49
67015;BME280;1033;52.560;13.374;2023-04-21T14:06:19;101147.63;;;20.16;34.02
67015;BME280;1033;52.560;13.374;2023-04-21T14:08:48;101147.16;;;20.24;33.76
67015;BME280;1033;52.560;13.374;2023-04-21T14:11:17;101142.31;;;20.31;33.89